Flight Track Log - Related Links

Times and Time Zones

All times are in EDT time to prevent confusion due to time zone crossing. See the RPA3275 flight status page for this flight to view local times or setup timezone preferences in your user account.

Time Position Orientation Groundspeed Altitude Reporting Facility
EDT Latitude Longitude Course Direction KTS MPH feet Rate Location/Type
Wed 07:07:14 AM 42.7653 -73.8061 220° Southwest 149 171 1,500  Level Boston Center
Wed 07:07:44 AM 42.7903 -73.8150 345° North 169 194 2,200 2,027 Climbing Boston Center
Wed 07:08:28 AM 42.8000 -73.8692 284° West 226 260 4,000 2,712 Climbing Boston Center
Wed 07:09:00 AM 42.7333 -74.1567 270° West  Level FlightAware Approximate
Wed 07:09:28 AM 42.7861 -73.9706 259° West 279 321 6,900  Level Boston Center
Wed 07:10:00 AM 42.7333 -74.2756 270° West  Level FlightAware Approximate
Wed 07:10:28 AM 42.7742 -74.0722 261° West 285 328 10,100  Level Boston Center
Wed 07:11:00 AM 42.6784 -74.3765 220° Southwest  Level FlightAware Approximate
Wed 07:11:28 AM 42.7600 -74.1850 260° West 298 343 12,100  Level Boston Center
Wed 07:12:00 AM 42.6034 -74.4608 220° Southwest  Level FlightAware Approximate
Wed 07:12:28 AM 42.7414 -74.3058 258° West 322 371 14,400  Level Boston Center
Wed 07:13:28 AM 42.6692 -74.3997 224° Southwest 344 396 16,000 800 Climbing Boston Center
Wed 07:14:28 AM 42.5989 -74.4767 219° Southwest 339 390 16,000  Level Boston Center
Wed 07:15:28 AM 42.5286 -74.5589 221° Southwest 334 384 16,000  Level Boston Center
Wed 07:16:28 AM 42.4669 -74.6300 220° Southwest 334 384 16,000  Level Boston Center
Wed 07:17:28 AM 42.3881 -74.7200 220° Southwest 334 384 16,000  Level Boston Center
Wed 07:18:28 AM 42.3239 -74.7961 221° Southwest 334 384 16,000 29 Level Boston Center
Wed 07:20:55 AM 42.1525 -74.9836 219° Southwest 336 387 16,100 29 Climbing New York Center
Wed 07:21:56 AM 42.0667 -75.0536 211° Southwest 341 392 16,100  Level New York Center
Wed 07:22:56 AM 41.9939 -75.1131 211° Southwest 336 387 16,100  Level New York Center
Wed 07:23:54 AM 41.9081 -75.1825 211° Southwest 331 381 16,100  Level New York Center
Wed 07:24:54 AM 41.8306 -75.2469 212° Southwest 331 381 16,100 -550 Level New York Center
Wed 07:25:54 AM 41.7469 -75.3108 210° Southwest 339 390 15,000 -1,361 Descending New York Center
Wed 07:26:53 AM 41.6761 -75.3672 211° Southwest 345 397 13,400 -1,500 Descending New York Center
Wed 07:27:54 AM 41.6008 -75.4314 213° Southwest 332 382 12,000 -694 Descending New York Center
Wed 07:28:54 AM 41.5147 -75.4975 210° Southwest 332 382 12,000  Level New York Center
Wed 07:29:55 AM 41.4394 -75.5583 211° Southwest 332 382 12,000  Level New York Center
Wed 07:30:56 AM 41.3619 -75.6192 211° Southwest 327 376 12,000  Level New York Center
Wed 07:31:56 AM 41.2911 -75.6750 211° Southwest 327 376 12,000  Level New York Center
Wed 07:32:55 AM 41.2033 -75.6797 182° South 304 350 12,000  Level New York Center
Wed 07:33:56 AM 41.1067 -75.6478 166° South 309 356 12,000  Level New York Center
Wed 07:34:56 AM 41.0183 -75.6194 166° South 332 382 12,000  Level New York Center
Wed 07:35:54 AM 40.9319 -75.5914 166° South 332 382 12,000  Level New York Center
Wed 07:36:54 AM 40.8519 -75.5636 165° South 337 388 12,000  Level New York Center
Wed 07:37:56 AM 40.7656 -75.5358 166° South 332 382 12,000  Level New York Center
Wed 07:38:54 AM 40.6669 -75.5014 165° South 332 382 12,000  Level New York Center
Wed 07:39:55 AM 40.5806 -75.4736 166° South 333 383 12,000 -639 Level New York Center
Wed 07:40:56 AM 40.4939 -75.4458 166° South 333 383 10,700 -1,068 Descending New York Center
Wed 07:41:53 AM 40.4100 -75.4075 161° South 333 383 9,900 -1,068 Descending New York Center
Wed 07:42:54 AM 40.3347 -75.3644 156° South 317 365 8,600 -1,328 Descending New York Center
Wed 07:43:55 AM 40.2592 -75.3214 156° South 297 342 7,200 -893 Descending New York Center
Wed 07:44:55 AM 40.1917 -75.2869 159° South 266 306 6,800 -595 Descending New York Center
Wed 07:45:56 AM 40.1328 -75.2506 155° Southeast 245 282 6,000 -397 Descending New York Center
Wed 07:46:56 AM 40.0736 -75.2169 157° South 240 276 6,000  Level New York Center
Wed 07:47:59 AM 40.0000 -75.1833 161° South 242 278 6,000 -54 Level Philadelphia TRACON
Wed 07:48:47 AM 39.9833 -75.1333 113° Southeast 230 265 5,900 -778 Descending Philadelphia TRACON
Wed 07:49:47 AM 40.0000 -75.0500 75° East 227 261 4,600 -1,100 Descending Philadelphia TRACON
Wed 07:50:47 AM 40.0000 -74.9667 90° East 222 255 3,700 -947 Descending Philadelphia TRACON
Wed 07:51:41 AM 39.9667 -74.9833 201° Southwest 175 201 2,800 -895 Descending Philadelphia TRACON
Wed 07:52:41 AM 39.9333 -75.0333 229° Southwest 180 207 2,000 -429 Descending Philadelphia TRACON
Wed 07:53:47 AM 39.9000 -75.1000 237° Southwest 173 199 1,900 -400 Descending Philadelphia TRACON
Wed 07:54:41 AM 39.9000 -75.1333 270° West 135 155 1,200 -722 Descending Philadelphia TRACON
Wed 07:55:35 AM 39.8833 -75.1833 247° West 131 151 600 -667 Descending Philadelphia TRACON

Login

Don't have an account? Register now (free) for customized features, flight alerts, and more!